createdAt,value
2019-04-23T00:00:08.768Z,3.12
2019-04-23T00:02:30.172Z,3.08
2019-04-23T00:05:01.802Z,2.92
2019-04-23T00:07:44.307Z,2.50
2019-04-23T00:13:40.737Z,2.72
2019-04-23T00:17:40.168Z,2.47
2019-04-23T00:20:03.842Z,2.70
2019-04-23T00:22:36.539Z,2.25
2019-04-23T00:27:59.424Z,3.00
2019-04-23T00:30:39.598Z,2.80
2019-04-23T00:32:55.471Z,2.27
2019-04-23T00:35:29.100Z,2.83
2019-04-23T00:38:04.705Z,2.75
2019-04-23T00:40:31.772Z,2.58
2019-04-23T00:43:03.447Z,2.75
2019-04-23T00:48:09.264Z,2.70
2019-04-23T00:50:38.425Z,2.77
2019-04-23T00:55:31.270Z,2.77
2019-04-23T00:58:08.501Z,2.80
2019-04-23T01:03:05.814Z,2.90
2019-04-23T01:05:35.574Z,2.60
2019-04-23T01:10:45.846Z,2.98
2019-04-23T01:13:14.884Z,2.95
2019-04-23T01:15:49.448Z,3.55
2019-04-23T01:18:32.563Z,2.85
2019-04-23T01:20:53.782Z,2.87
2019-04-23T01:23:37.744Z,3.30
2019-04-23T01:26:16.185Z,3.08
2019-04-23T01:28:55.908Z,3.20
2019-04-23T01:31:31.956Z,2.98
2019-04-23T01:33:53.317Z,3.00
2019-04-23T01:38:55.948Z,2.80
2019-04-23T01:41:30.422Z,3.33
2019-04-23T01:43:50.322Z,3.27
2019-04-23T01:46:29.140Z,3.30
2019-04-23T01:48:58.228Z,2.87
2019-04-23T01:51:26.186Z,3.37
2019-04-23T01:56:24.312Z,3.25
2019-04-23T01:59:03.554Z,3.35
2019-04-23T02:01:25.288Z,3.02
2019-04-23T02:06:27.981Z,3.80
2019-04-23T02:08:59.937Z,3.52
2019-04-23T02:11:28.472Z,3.67
2019-04-23T02:13:55.563Z,3.42
2019-04-23T02:16:32.719Z,3.67
2019-04-23T02:18:56.772Z,3.37
2019-04-23T02:21:47.755Z,3.98
2019-04-23T02:23:59.696Z,3.75
2019-04-23T02:26:33.329Z,4.00
2019-04-23T02:29:03.593Z,3.70
2019-04-23T02:31:48.964Z,4.37
2019-04-23T02:34:14.374Z,4.03
2019-04-23T02:36:39.776Z,3.60
2019-04-23T02:39:26.500Z,3.50
2019-04-23T02:44:11.672Z,4.40
2019-04-23T02:46:31.305Z,3.85
2019-04-23T02:54:22.897Z,4.00
2019-04-23T02:59:11.136Z,4.45
2019-04-23T03:01:34.302Z,4.25
2019-04-23T03:06:38.839Z,4.33
2019-04-23T03:09:12.858Z,4.20
2019-04-23T03:11:41.789Z,4.40
2019-04-23T03:14:12.059Z,4.53
2019-04-23T03:16:53.198Z,4.47
2019-04-23T03:19:21.620Z,4.60
2019-04-23T03:21:52.790Z,4.47
2019-04-23T03:29:40.469Z,4.08
2019-04-23T03:39:42.108Z,4.90
2019-04-23T03:42:02.668Z,5.12
2019-04-23T03:47:07.079Z,4.33
2019-04-23T03:49:30.102Z,5.05
2019-04-23T03:52:19.298Z,4.15
2019-04-23T03:59:36.878Z,5.28
2019-04-23T04:02:15.498Z,5.00
2019-04-23T04:09:34.172Z,4.67
2019-04-23T04:12:07.806Z,5.20
2019-04-23T04:19:39.690Z,5.10
2019-04-23T04:27:06.100Z,4.87
2019-04-23T04:29:39.666Z,5.00
2019-04-23T04:32:02.591Z,5.20
2019-04-23T04:39:33.565Z,5.22
2019-04-23T04:42:09.325Z,4.83
2019-04-23T04:46:58.692Z,5.08
2019-04-23T04:49:48.644Z,5.62
2019-04-23T04:52:26.758Z,5.25
2019-04-23T04:54:22.965Z,4.33
2019-04-23T04:57:14.370Z,5.80
2019-04-23T04:59:40.033Z,5.05
2019-04-23T05:04:38.132Z,4.55
2019-04-23T05:07:30.453Z,5.42
2019-04-23T05:09:43.905Z,5.15
2019-04-23T05:12:14.368Z,4.58
2019-04-23T05:17:13.399Z,5.12
2019-04-23T05:22:06.527Z,5.17
2019-04-23T05:24:36.810Z,4.80
2019-04-23T05:27:04.749Z,4.83
2019-04-23T05:29:41.445Z,5.60
2019-04-23T05:32:06.626Z,4.83
2019-04-23T05:34:35.715Z,5.25
2019-04-23T05:37:07.053Z,4.62
2019-04-23T05:42:04.428Z,4.92
2019-04-23T05:44:38.727Z,4.78
2019-04-23T05:49:39.721Z,4.87
2019-04-23T05:52:07.527Z,4.47
2019-04-23T05:54:44.918Z,5.40
2019-04-23T05:57:07.026Z,5.03
2019-04-23T05:59:34.318Z,5.25
2019-04-23T06:02:13.216Z,4.90
2019-04-23T06:07:22.102Z,5.15
2019-04-23T06:09:44.711Z,4.92
2019-04-23T06:12:07.621Z,4.72
2019-04-23T06:19:36.679Z,4.87
2019-04-23T06:22:20.665Z,4.70
2019-04-23T06:24:47.062Z,4.42
2019-04-23T06:27:16.586Z,5.35
2019-04-23T06:29:39.763Z,5.00
2019-04-23T06:32:07.990Z,5.17
2019-04-23T06:34:45.559Z,4.67
2019-04-23T06:37:08.991Z,4.75
2019-04-23T06:39:41.283Z,5.03
2019-04-23T06:42:23.368Z,4.62
2019-04-23T06:44:45.020Z,5.60
2019-04-23T06:47:12.947Z,4.37
2019-04-23T06:49:46.843Z,4.70
2019-04-23T06:54:48.024Z,4.22
2019-04-23T06:57:19.214Z,4.47
2019-04-23T06:59:43.882Z,4.62
2019-04-23T07:04:55.383Z,4.53
2019-04-23T07:07:38.065Z,4.37
2019-04-23T07:09:45.573Z,5.03
2019-04-23T07:12:15.083Z,4.87
2019-04-23T07:14:51.491Z,4.60
2019-04-23T07:17:23.173Z,4.62
2019-04-23T07:22:16.429Z,4.65
2019-04-23T07:24:49.134Z,5.28
2019-04-23T07:27:19.103Z,5.00
2019-04-23T07:32:32.873Z,4.20
2019-04-23T07:34:49.400Z,4.78
2019-04-23T07:37:19.004Z,5.00
2019-04-23T07:40:07.680Z,5.22
2019-04-23T07:42:29.698Z,4.95
2019-04-23T07:45:10.523Z,5.72
2019-04-23T07:50:33.515Z,5.30
2019-04-23T07:55:38.841Z,4.75
2019-04-23T07:58:00.267Z,4.45
2019-04-23T08:00:37.693Z,4.55
2019-04-23T08:03:05.293Z,4.28
2019-04-23T08:07:55.861Z,5.03
2019-04-23T08:10:29.676Z,4.78
2019-04-23T08:12:58.487Z,4.65
2019-04-23T08:15:28.212Z,4.58
2019-04-23T08:18:00.226Z,4.92
2019-04-23T08:20:29.954Z,5.50
2019-04-23T08:23:03.860Z,4.37
2019-04-23T08:25:48.863Z,4.67
2019-04-23T08:28:13.566Z,4.40
2019-04-23T08:30:42.426Z,4.75
2019-04-23T08:33:12.077Z,5.10
2019-04-23T08:35:43.558Z,4.80
2019-04-23T08:38:21.062Z,4.80
2019-04-23T08:40:54.409Z,5.47
2019-04-23T08:43:31.453Z,4.78
2019-04-23T08:45:48.201Z,4.67
2019-04-23T08:48:32.837Z,4.58
2019-04-23T08:56:07.704Z,4.85
2019-04-23T08:58:25.889Z,5.87
2019-04-23T09:01:27.579Z,4.80
2019-04-23T09:03:34.373Z,4.55
2019-04-23T09:08:27.824Z,5.10
2019-04-23T09:11:13.747Z,4.53
2019-04-23T09:20:47.990Z,4.40
2019-04-23T09:23:28.362Z,4.80
2019-04-23T09:25:55.595Z,4.60
2019-04-23T09:28:33.223Z,5.35
2019-04-23T09:31:04.019Z,5.60
2019-04-23T09:33:58.028Z,4.42
2019-04-23T09:36:34.642Z,4.87
2019-04-23T09:39:08.258Z,4.62
2019-04-23T09:41:32.782Z,4.87
2019-04-23T09:44:27.606Z,5.00
2019-04-23T09:47:13.928Z,5.33
2019-04-23T09:52:01.065Z,5.00
2019-04-23T09:54:38.197Z,5.28
2019-04-23T09:57:13.420Z,4.97
2019-04-23T09:59:40.423Z,4.87
2019-04-23T10:01:52.868Z,4.80
2019-04-23T10:04:17.574Z,4.85
2019-04-23T10:06:36.836Z,5.03
2019-04-23T10:09:06.636Z,4.85
2019-04-23T10:11:34.624Z,5.25
2019-04-23T10:14:03.122Z,5.33
2019-04-23T10:16:34.217Z,5.03
2019-04-23T10:19:01.677Z,4.80
2019-04-23T10:21:31.197Z,4.80
2019-04-23T10:24:01.280Z,6.00
2019-04-23T10:26:30.297Z,5.00
2019-04-23T10:29:02.109Z,4.62
2019-04-23T10:31:31.519Z,5.10
2019-04-23T10:34:00.262Z,5.93
2019-04-23T10:36:31.680Z,5.25
2019-04-23T10:39:04.952Z,5.08
2019-04-23T10:41:30.604Z,5.10
2019-04-23T10:44:13.025Z,5.10
2019-04-23T10:47:17.780Z,4.60
2019-04-23T10:54:54.713Z,4.87
2019-04-23T11:00:03.667Z,5.10
2019-04-23T11:05:00.029Z,5.10
2019-04-23T11:07:30.777Z,5.28
2019-04-23T11:15:28.852Z,5.17
2019-04-23T11:20:27.068Z,4.87
2019-04-23T11:27:55.411Z,5.00
2019-04-23T11:33:00.821Z,5.50
2019-04-23T11:37:58.721Z,5.60
2019-04-23T11:38:12.159Z,5.42
2019-04-23T11:40:21.482Z,4.83
2019-04-23T11:48:22.389Z,5.37
2019-04-23T11:50:41.726Z,4.83
2019-04-23T11:53:10.049Z,5.80
2019-04-23T11:58:08.756Z,4.90
2019-04-23T12:00:38.931Z,5.10
2019-04-23T12:03:04.185Z,4.58
2019-04-23T12:06:07.519Z,4.90
2019-04-23T12:08:37.733Z,4.97
2019-04-23T12:11:39.802Z,5.05
2019-04-23T12:14:03.656Z,5.00
2019-04-23T12:16:31.967Z,4.95
2019-04-23T12:19:15.844Z,5.08
2019-04-23T12:21:40.473Z,4.55
2019-04-23T12:24:04.710Z,5.08
2019-04-23T12:26:35.526Z,4.25
2019-04-23T12:28:57.555Z,4.22
2019-04-23T12:31:36.031Z,4.28
2019-04-23T12:34:14.979Z,4.37
2019-04-23T12:36:37.949Z,4.90
2019-04-23T12:39:09.107Z,4.67
2019-04-23T12:41:36.265Z,4.87
2019-04-23T12:43:58.049Z,5.12
2019-04-23T12:46:39.637Z,4.83
2019-04-23T12:49:07.017Z,4.12
2019-04-23T12:54:12.736Z,5.03
2019-04-23T12:56:49.101Z,5.05
2019-04-23T12:59:01.744Z,5.00
2019-04-23T13:01:42.304Z,4.87
2019-04-23T13:06:28.177Z,4.40
2019-04-23T13:09:14.236Z,4.37
2019-04-23T13:11:38.342Z,3.87
2019-04-23T13:14:08.584Z,4.20
2019-04-23T13:21:51.437Z,4.37
2019-04-23T13:24:09.534Z,3.95
2019-04-23T13:26:37.985Z,4.60
2019-04-23T13:29:23.803Z,4.92
2019-04-23T13:31:39.806Z,4.62
2019-04-23T13:34:19.461Z,7.78
2019-04-23T13:36:45.448Z,4.70
2019-04-23T13:39:21.243Z,5.30
2019-04-23T13:41:42.160Z,5.20
2019-04-23T13:44:08.875Z,4.53
2019-04-23T13:46:39.921Z,4.45
2019-04-23T13:49:18.522Z,5.25
2019-04-23T13:51:39.379Z,5.20
2019-04-23T13:54:17.071Z,4.60
2019-04-23T13:57:12.856Z,5.03
2019-04-23T13:59:28.847Z,4.97
2019-04-23T14:01:40.029Z,4.65
2019-04-23T14:04:38.939Z,5.20
2019-04-23T14:06:53.904Z,5.03
2019-04-23T14:09:31.471Z,5.20
2019-04-23T14:11:46.587Z,5.03
2019-04-23T14:14:36.340Z,4.75
2019-04-23T14:17:18.216Z,4.95
2019-04-23T14:19:16.282Z,5.33
2019-04-23T14:21:51.744Z,5.03
2019-04-23T14:24:45.233Z,4.95
2019-04-23T14:26:55.989Z,4.42
2019-04-23T14:29:30.615Z,5.00
2019-04-23T14:34:37.688Z,4.40
2019-04-23T14:37:00.386Z,4.90
2019-04-23T14:39:28.682Z,5.10
2019-04-23T14:41:57.797Z,4.95
2019-04-23T14:44:19.714Z,4.70
2019-04-23T14:47:03.718Z,5.30
2019-04-23T14:49:40.742Z,4.53
2019-04-23T14:51:58.921Z,4.90
2019-04-23T14:55:06.182Z,4.62
2019-04-23T14:57:14.572Z,4.67
2019-04-23T14:59:32.212Z,3.85
2019-04-23T15:07:11.013Z,5.80
2019-04-23T15:14:47.818Z,3.87
2019-04-23T15:17:07.235Z,5.58
2019-04-23T15:22:21.644Z,4.85
2019-04-23T15:25:05.309Z,5.75
2019-04-23T15:28:03.114Z,5.25
2019-04-23T15:29:45.829Z,4.83
2019-04-23T15:32:23.871Z,5.50
2019-04-23T15:40:04.294Z,5.03
2019-04-23T15:42:26.143Z,4.53
2019-04-23T15:45:05.301Z,5.45
2019-04-23T15:49:59.135Z,4.35
2019-04-23T15:52:30.224Z,4.35
2019-04-23T15:57:41.816Z,4.33
2019-04-23T15:59:55.981Z,4.60
2019-04-23T16:01:57.440Z,5.30
2019-04-23T16:04:25.845Z,5.25
2019-04-23T16:06:54.223Z,4.70
2019-04-23T16:10:03.197Z,3.83
2019-04-23T16:12:17.357Z,4.85
2019-04-23T16:14:57.007Z,4.97
2019-04-23T16:22:32.114Z,4.47
2019-04-23T16:27:20.057Z,4.87
2019-04-23T16:30:10.817Z,3.92
2019-04-23T16:32:52.492Z,4.35
2019-04-23T16:35:31.053Z,4.80
2019-04-23T16:37:46.677Z,4.42
2019-04-23T16:40:19.297Z,4.65
2019-04-23T16:42:47.903Z,4.78
2019-04-23T16:45:15.273Z,4.72
2019-04-23T16:47:48.352Z,5.30
2019-04-23T16:50:18.160Z,4.17
2019-04-23T16:52:46.304Z,4.60
2019-04-23T16:55:16.634Z,4.47
2019-04-23T17:00:24.106Z,4.45
2019-04-23T17:02:54.665Z,5.33
2019-04-23T17:05:21.659Z,4.83
2019-04-23T17:07:53.765Z,4.37
2019-04-23T17:10:23.937Z,4.37
2019-04-23T17:12:52.482Z,4.47
2019-04-23T17:15:21.177Z,4.87
2019-04-23T17:17:46.913Z,4.53
2019-04-23T17:20:27.276Z,5.25
2019-04-23T17:25:24.817Z,4.78
2019-04-23T17:27:59.081Z,4.97
2019-04-23T17:32:57.107Z,4.78
2019-04-23T17:35:30.041Z,5.00
2019-04-23T17:38:00.177Z,4.35
2019-04-23T17:40:47.494Z,4.25
2019-04-23T17:43:04.693Z,6.78
2019-04-23T17:45:46.930Z,5.72
2019-04-23T17:53:29.866Z,5.42
2019-04-23T17:55:57.590Z,5.47
2019-04-23T17:58:23.365Z,5.37
2019-04-23T18:03:30.438Z,6.55
2019-04-23T18:06:04.077Z,5.33
2019-04-23T18:08:19.432Z,6.50
2019-04-23T18:10:59.467Z,5.72
2019-04-23T18:13:21.085Z,6.10
2019-04-23T18:15:58.354Z,5.55
2019-04-23T18:18:34.875Z,5.33
2019-04-23T18:21:03.475Z,6.03
2019-04-23T18:23:41.653Z,5.50
2019-04-23T18:26:04.109Z,6.33
2019-04-23T18:28:37.640Z,6.50
2019-04-23T18:34:03.553Z,7.97
2019-04-23T18:36:08.124Z,6.40
2019-04-23T18:38:47.887Z,5.58
2019-04-23T18:41:27.310Z,7.03
2019-04-23T18:44:02.886Z,6.15
2019-04-23T18:48:50.456Z,6.83
2019-04-23T18:51:11.651Z,5.95
2019-04-23T19:01:23.189Z,5.20
2019-04-23T19:09:17.804Z,6.05
2019-04-23T19:12:25.564Z,7.90
2019-04-23T19:14:40.842Z,6.12
2019-04-23T19:24:37.741Z,5.85
2019-04-23T19:29:50.859Z,7.08
2019-04-23T19:37:02.473Z,8.48
2019-04-23T19:39:48.332Z,7.47
2019-04-23T19:44:43.812Z,6.75
2019-04-23T19:47:27.183Z,6.25
2019-04-23T19:49:38.556Z,6.65
2019-04-23T19:54:42.879Z,6.95
2019-04-23T19:57:22.107Z,7.17
2019-04-23T20:04:41.013Z,6.10
2019-04-23T20:09:50.753Z,6.65
2019-04-23T20:12:06.440Z,7.17
2019-04-23T20:19:44.064Z,7.62
2019-04-23T20:22:16.700Z,7.83
2019-04-23T20:24:57.729Z,7.28
2019-04-23T20:27:32.095Z,6.92
2019-04-23T20:33:16.988Z,8.05
2019-04-23T20:37:30.315Z,7.30
2019-04-23T20:39:59.997Z,7.60
2019-04-23T20:42:20.284Z,7.30
2019-04-23T20:44:53.921Z,8.18
2019-04-23T20:55:00.028Z,7.55
2019-04-23T21:00:08.933Z,6.83
2019-04-23T21:03:18.277Z,8.13
2019-04-23T21:07:57.916Z,6.85
2019-04-23T21:13:09.253Z,7.90
2019-04-23T21:17:51.552Z,7.72
2019-04-23T21:20:30.088Z,7.62
2019-04-23T21:22:45.346Z,7.45
2019-04-23T21:25:08.358Z,7.37
2019-04-23T21:30:53.646Z,7.47
2019-04-23T21:33:09.015Z,7.20
2019-04-23T21:36:12.587Z,8.08
2019-04-23T21:41:29.926Z,8.23
2019-04-23T21:46:22.655Z,6.92
2019-04-23T21:51:30.938Z,7.95
2019-04-23T21:53:51.677Z,7.35
2019-04-23T21:58:58.046Z,7.90
2019-04-23T22:01:36.896Z,6.58
2019-04-23T22:04:08.649Z,8.10
2019-04-23T22:11:48.297Z,7.60
2019-04-23T22:14:05.542Z,7.37
2019-04-23T22:16:23.405Z,8.15
2019-04-23T22:24:03.130Z,7.78
2019-04-23T22:31:40.308Z,7.47
2019-04-23T22:34:17.266Z,7.00
2019-04-23T22:36:32.102Z,7.45
2019-04-23T22:39:04.574Z,7.45
2019-04-23T22:41:36.281Z,8.35
2019-04-23T22:44:05.374Z,7.78
2019-04-23T22:46:38.021Z,8.25
2019-04-23T22:51:55.414Z,7.65
2019-04-23T22:54:13.795Z,7.42
2019-04-23T22:57:00.959Z,7.85
2019-04-23T22:59:26.586Z,8.78
2019-04-23T23:02:00.373Z,7.72
2019-04-23T23:09:39.786Z,8.93
2019-04-23T23:12:02.365Z,7.92
2019-04-23T23:14:27.044Z,9.13
2019-04-23T23:16:58.565Z,8.15
2019-04-23T23:19:29.904Z,8.50
2019-04-23T23:22:02.099Z,9.38
2019-04-23T23:24:33.707Z,6.62
2019-04-23T23:26:57.502Z,9.68
2019-04-23T23:29:34.647Z,9.63
2019-04-23T23:32:02.169Z,10.35
2019-04-23T23:34:38.355Z,9.48
2019-04-23T23:37:02.134Z,9.50
2019-04-23T23:39:27.470Z,9.30
2019-04-23T23:42:05.588Z,10.00
2019-04-23T23:47:04.463Z,9.13
2019-04-23T23:51:57.941Z,9.98
2019-04-23T23:54:27.491Z,9.18
2019-04-23T23:57:03.742Z,8.98
2019-04-23T23:59:34.977Z,9.35
